createdAt,value
2017-11-17T00:01:34.218Z,15.30
2017-11-17T00:04:02.657Z,19.50
2017-11-17T00:06:31.083Z,16.97
2017-11-17T00:08:59.536Z,17.13
2017-11-17T00:11:27.974Z,17.60
2017-11-17T00:13:56.405Z,16.97
2017-11-17T00:16:24.879Z,17.60
2017-11-17T00:18:53.405Z,16.90
2017-11-17T00:21:22.610Z,17.87
2017-11-17T00:23:51.845Z,17.70
2017-11-17T00:26:20.274Z,19.67
2017-11-17T00:28:49.470Z,19.50
2017-11-17T00:31:18.692Z,19.80
2017-11-17T00:33:47.125Z,22.50
2017-11-17T00:36:17.075Z,20.27
2017-11-17T00:38:46.293Z,19.47
2017-11-17T00:41:14.721Z,21.10
2017-11-17T00:43:43.149Z,19.60
2017-11-17T00:46:11.629Z,21.57
2017-11-17T00:48:40.058Z,19.83
2017-11-17T00:51:09.251Z,20.30
2017-11-17T00:53:37.722Z,18.70
2017-11-17T00:56:06.154Z,19.73
2017-11-17T00:58:34.586Z,19.37
2017-11-17T01:01:04.542Z,19.33
2017-11-17T01:03:32.967Z,20.77
2017-11-17T01:06:01.393Z,19.53
2017-11-17T01:08:30.612Z,19.10
2017-11-17T01:10:59.053Z,19.17
2017-11-17T01:13:28.267Z,18.00
2017-11-17T01:15:57.492Z,17.93
2017-11-17T01:18:25.928Z,21.10
2017-11-17T01:20:56.188Z,19.17
2017-11-17T01:23:24.314Z,18.13
2017-11-17T01:25:52.751Z,19.87
2017-11-17T01:28:21.212Z,16.80
2017-11-17T01:30:49.834Z,17.47
2017-11-17T01:33:18.265Z,18.87
2017-11-17T01:35:46.693Z,19.03
2017-11-17T01:38:15.149Z,20.17
2017-11-17T01:40:43.586Z,19.27
2017-11-17T01:43:12.798Z,21.50
2017-11-17T01:45:41.253Z,19.90
2017-11-17T01:48:09.684Z,21.07
2017-11-17T01:50:38.117Z,19.70
2017-11-17T01:53:07.356Z,20.70
2017-11-17T01:55:35.793Z,20.77
2017-11-17T01:58:05.405Z,21.80
2017-11-17T02:00:33.987Z,20.27
2017-11-17T02:03:02.849Z,19.97
2017-11-17T02:05:31.283Z,20.30
2017-11-17T02:07:59.739Z,18.77
2017-11-17T02:10:28.937Z,20.20
2017-11-17T02:12:58.133Z,20.43
2017-11-17T02:15:26.598Z,20.07
2017-11-17T02:17:55.845Z,19.30
2017-11-17T02:20:23.937Z,19.70
2017-11-17T02:22:52.399Z,18.27
2017-11-17T02:25:20.179Z,18.40
2017-11-17T02:27:47.953Z,21.43
2017-11-17T02:30:15.819Z,19.17
2017-11-17T02:32:43.686Z,19.67
2017-11-17T02:35:11.454Z,17.23
2017-11-17T02:37:39.243Z,20.23
2017-11-17T02:40:08.434Z,19.63
2017-11-17T02:42:37.065Z,19.13
2017-11-17T02:45:05.535Z,20.20
2017-11-17T02:47:33.306Z,18.37
2017-11-17T02:50:01.070Z,18.50
2017-11-17T02:52:28.859Z,18.37
2017-11-17T02:54:56.622Z,17.73
2017-11-17T02:57:24.430Z,17.60
2017-11-17T02:59:53.310Z,16.80
2017-11-17T03:02:22.513Z,16.37
2017-11-17T03:04:51.716Z,15.67
2017-11-17T03:07:19.841Z,14.17
2017-11-17T03:09:49.042Z,16.13
2017-11-17T03:12:17.474Z,14.90
2017-11-17T03:14:45.625Z,13.33
2017-11-17T03:17:14.289Z,15.10
2017-11-17T03:19:42.720Z,12.87
2017-11-17T03:22:11.168Z,13.20
2017-11-17T03:24:39.700Z,11.73
2017-11-17T03:27:07.470Z,12.40
2017-11-17T03:29:35.591Z,11.30
2017-11-17T03:32:04.022Z,12.47
2017-11-17T03:34:32.488Z,13.17
2017-11-17T03:37:00.944Z,13.30
2017-11-17T03:39:29.378Z,13.13
2017-11-17T03:41:57.808Z,11.47
2017-11-17T03:44:25.934Z,12.77
2017-11-17T03:46:53.702Z,14.00
2017-11-17T03:49:22.898Z,12.10
2017-11-17T03:51:51.030Z,14.80
2017-11-17T03:54:19.464Z,14.70
2017-11-17T03:56:48.663Z,14.10
2017-11-17T03:59:18.229Z,16.07
2017-11-17T04:01:46.656Z,16.43
2017-11-17T04:04:15.085Z,15.03
2017-11-17T04:06:43.365Z,14.23
2017-11-17T04:09:11.471Z,15.07
2017-11-17T04:11:40.673Z,14.03
2017-11-17T04:14:09.885Z,14.30
2017-11-17T04:16:38.320Z,12.70
2017-11-17T04:19:06.753Z,12.40
2017-11-17T04:21:34.892Z,13.10
2017-11-17T04:24:04.100Z,13.13
2017-11-17T04:26:32.535Z,13.17
2017-11-17T04:29:00.991Z,13.23
2017-11-17T04:31:29.430Z,12.73
2017-11-17T04:33:57.870Z,13.03
2017-11-17T04:36:26.764Z,12.57
2017-11-17T04:38:56.367Z,11.77
2017-11-17T04:41:24.807Z,11.93
2017-11-17T04:43:53.352Z,12.40
2017-11-17T04:46:22.209Z,11.97
2017-11-17T04:48:50.642Z,11.10
2017-11-17T04:51:18.873Z,12.27
2017-11-17T04:53:47.301Z,13.37
2017-11-17T04:56:15.738Z,13.37
2017-11-17T04:58:44.190Z,13.50
2017-11-17T05:01:12.382Z,14.10
2017-11-17T05:03:40.818Z,13.73
2017-11-17T05:06:09.265Z,14.07
2017-11-17T05:08:38.457Z,14.57
2017-11-17T05:11:07.656Z,16.90
2017-11-17T05:13:36.873Z,16.57
2017-11-17T05:16:05.304Z,15.10
2017-11-17T05:18:33.745Z,17.27
2017-11-17T05:21:02.032Z,17.47
2017-11-17T05:23:30.465Z,18.30
2017-11-17T05:25:59.667Z,17.33
2017-11-17T05:28:28.883Z,16.60
2017-11-17T05:30:57.315Z,17.83
2017-11-17T05:33:25.754Z,18.53
2017-11-17T05:35:54.208Z,19.63
2017-11-17T05:38:23.404Z,21.13
2017-11-17T05:40:52.599Z,18.73
2017-11-17T05:43:21.935Z,19.23
2017-11-17T05:45:50.376Z,22.50
2017-11-17T05:48:19.581Z,18.80
2017-11-17T05:50:49.050Z,20.30
2017-11-17T05:53:17.619Z,22.10
2017-11-17T05:55:46.057Z,22.10
2017-11-17T05:58:14.640Z,23.73
2017-11-17T06:00:43.908Z,22.30
2017-11-17T06:03:12.391Z,20.37
2017-11-17T06:05:41.167Z,20.83
2017-11-17T06:08:09.866Z,21.53
2017-11-17T06:10:38.650Z,21.17
2017-11-17T06:13:07.390Z,22.25
2017-11-17T06:15:36.201Z,21.62
2017-11-17T06:18:04.690Z,21.30
2017-11-17T06:20:33.426Z,22.00
2017-11-17T06:23:02.582Z,21.47
2017-11-17T06:25:31.302Z,21.80
2017-11-17T06:27:59.754Z,23.10
2017-11-17T06:30:29.344Z,23.70
2017-11-17T06:32:58.804Z,24.33
2017-11-17T06:35:27.582Z,23.65
2017-11-17T06:37:57.358Z,23.97
2017-11-17T06:40:26.266Z,25.98
2017-11-17T06:42:55.950Z,23.63
2017-11-17T06:45:24.864Z,21.73
2017-11-17T06:47:54.282Z,25.07
2017-11-17T06:50:23.807Z,23.30
2017-11-17T06:52:52.238Z,24.67
2017-11-17T06:55:21.776Z,22.73
2017-11-17T06:57:51.303Z,24.90
2017-11-17T07:00:19.741Z,23.77
2017-11-17T07:02:48.448Z,21.55
2017-11-17T07:05:16.949Z,23.10
2017-11-17T07:07:45.386Z,24.77
2017-11-17T07:10:14.096Z,23.60
2017-11-17T07:12:42.878Z,24.27
2017-11-17T07:15:11.448Z,23.90
2017-11-17T07:17:39.887Z,21.87
2017-11-17T07:20:08.531Z,22.10
2017-11-17T07:22:37.256Z,23.10
2017-11-17T07:25:06.035Z,22.77
2017-11-17T07:27:34.948Z,23.67
2017-11-17T07:30:03.671Z,21.00
2017-11-17T07:32:33.347Z,20.65
2017-11-17T07:35:02.091Z,20.85
2017-11-17T07:37:30.806Z,21.23
2017-11-17T07:39:59.383Z,23.73
2017-11-17T07:42:29.363Z,19.70
2017-11-17T07:44:58.362Z,21.95
2017-11-17T07:47:27.199Z,22.58
2017-11-17T07:49:56.457Z,24.30
2017-11-17T07:52:24.921Z,21.03
2017-11-17T07:54:53.638Z,22.60
2017-11-17T07:57:22.284Z,21.23
2017-11-17T07:59:50.975Z,20.60
2017-11-17T08:02:19.578Z,22.53
2017-11-17T08:04:48.027Z,24.90
2017-11-17T08:07:16.850Z,22.73
2017-11-17T08:09:44.836Z,21.42
2017-11-17T08:12:13.721Z,25.03
2017-11-17T08:14:42.154Z,23.60
2017-11-17T08:17:21.712Z,23.80
2017-11-17T08:19:49.814Z,23.97
2017-11-17T08:22:18.410Z,23.93
2017-11-17T08:24:47.302Z,24.57
2017-11-17T08:27:16.019Z,23.12
2017-11-17T08:29:44.836Z,24.02
2017-11-17T08:32:13.492Z,21.33
2017-11-17T08:34:41.965Z,19.60
2017-11-17T08:37:10.719Z,23.13
2017-11-17T08:39:39.936Z,21.70
2017-11-17T08:42:08.374Z,21.87
2017-11-17T08:44:37.499Z,21.45
2017-11-17T08:47:06.118Z,22.90
2017-11-17T08:49:34.632Z,22.40
2017-11-17T08:52:03.844Z,21.30
2017-11-17T08:54:32.363Z,19.33
2017-11-17T08:57:01.839Z,20.85
2017-11-17T08:59:30.606Z,21.62
2017-11-17T09:01:59.349Z,20.73
2017-11-17T09:04:27.788Z,20.17
2017-11-17T09:06:56.503Z,19.48
2017-11-17T09:09:25.201Z,20.13
2017-11-17T09:11:53.878Z,23.00
2017-11-17T09:14:22.384Z,21.30
2017-11-17T09:16:51.735Z,22.15
2017-11-17T09:19:21.248Z,22.07
2017-11-17T09:21:50.731Z,23.27
2017-11-17T09:24:19.359Z,20.48
2017-11-17T09:26:47.924Z,19.90
2017-11-17T09:29:16.966Z,19.90
2017-11-17T09:31:46.012Z,20.23
2017-11-17T09:34:15.648Z,23.58
2017-11-17T09:36:44.407Z,20.80
2017-11-17T09:39:14.320Z,22.35
2017-11-17T09:41:43.083Z,22.67
2017-11-17T09:44:11.127Z,23.45
2017-11-17T09:46:39.534Z,22.30
2017-11-17T09:49:08.238Z,22.27
2017-11-17T09:51:36.432Z,22.13
2017-11-17T09:54:05.196Z,22.17
2017-11-17T09:56:33.800Z,20.97
2017-11-17T09:59:02.232Z,21.47
2017-11-17T10:01:30.785Z,22.27
2017-11-17T10:04:00.747Z,23.70
2017-11-17T10:06:29.055Z,21.57
2017-11-17T10:08:57.792Z,23.15
2017-11-17T10:11:26.657Z,20.97
2017-11-17T10:13:55.096Z,23.87
2017-11-17T10:16:24.256Z,22.58
2017-11-17T10:18:54.098Z,21.70
2017-11-17T10:21:23.585Z,21.40
2017-11-17T10:23:52.470Z,23.00
2017-11-17T10:26:21.017Z,21.48
2017-11-17T10:28:49.731Z,24.17
2017-11-17T10:31:18.470Z,23.30
2017-11-17T10:33:47.196Z,23.95
2017-11-17T10:36:15.979Z,24.07
2017-11-17T10:38:44.736Z,22.97
2017-11-17T10:41:13.735Z,23.57
2017-11-17T10:43:42.181Z,23.77
2017-11-17T10:46:11.680Z,22.67
2017-11-17T10:48:41.156Z,22.70
2017-11-17T10:51:09.965Z,23.48
2017-11-17T10:53:38.437Z,21.47
2017-11-17T10:56:25.519Z,25.90
2017-11-17T10:58:54.962Z,22.00
2017-11-17T11:01:24.440Z,23.33
2017-11-17T11:03:53.682Z,23.03
2017-11-17T11:06:22.342Z,24.43
2017-11-17T11:08:50.590Z,24.65
2017-11-17T11:11:25.140Z,22.65
2017-11-17T11:13:54.620Z,23.63
2017-11-17T11:16:23.539Z,23.12
2017-11-17T11:18:51.666Z,24.03
2017-11-17T11:21:21.147Z,22.20
2017-11-17T11:23:49.743Z,22.43
2017-11-17T11:26:18.152Z,23.65
2017-11-17T11:28:47.361Z,22.98
2017-11-17T11:31:16.347Z,23.73
2017-11-17T11:33:44.702Z,23.73
2017-11-17T11:36:12.748Z,22.85
2017-11-17T11:38:42.285Z,22.58
2017-11-17T11:41:11.845Z,22.70
2017-11-17T11:43:40.800Z,23.30
2017-11-17T11:46:09.408Z,24.00
2017-11-17T11:48:38.154Z,23.70
2017-11-17T11:51:07.918Z,24.60
2017-11-17T11:53:36.349Z,23.33
2017-11-17T11:56:05.893Z,23.60
2017-11-17T11:58:35.444Z,23.83
2017-11-17T12:01:03.491Z,25.95
2017-11-17T12:03:31.947Z,23.60
2017-11-17T12:06:00.052Z,23.77
2017-11-17T12:08:28.592Z,25.03
2017-11-17T12:10:57.996Z,25.93
2017-11-17T12:13:26.743Z,25.35
2017-11-17T12:15:55.199Z,22.30
2017-11-17T12:18:24.052Z,23.45
2017-11-17T12:20:53.534Z,23.87
2017-11-17T12:23:22.246Z,24.85
2017-11-17T12:25:50.787Z,22.23
2017-11-17T12:28:19.489Z,25.05
2017-11-17T12:30:48.197Z,22.13
2017-11-17T12:33:16.955Z,22.20
2017-11-17T12:35:46.355Z,23.13
2017-11-17T12:38:15.542Z,22.73
2017-11-17T12:40:44.182Z,24.03
2017-11-17T12:43:12.805Z,22.33
2017-11-17T12:45:41.676Z,22.13
2017-11-17T12:48:10.406Z,23.43
2017-11-17T12:50:39.619Z,22.35
2017-11-17T12:53:08.338Z,21.92
2017-11-17T12:55:37.079Z,23.17
2017-11-17T12:58:05.575Z,23.75
2017-11-17T13:00:34.282Z,23.33
2017-11-17T13:03:03.482Z,23.73
2017-11-17T13:05:32.290Z,24.40
2017-11-17T13:08:00.966Z,22.92
2017-11-17T13:10:29.705Z,25.48
2017-11-17T13:12:58.560Z,22.13
2017-11-17T13:15:27.289Z,23.97
2017-11-17T13:17:56.135Z,23.60
2017-11-17T13:20:25.034Z,24.10
2017-11-17T13:22:53.675Z,24.30
2017-11-17T13:25:22.139Z,22.30
2017-11-17T13:27:50.575Z,22.10
2017-11-17T13:30:19.289Z,22.75
2017-11-17T13:32:47.981Z,22.97
2017-11-17T13:35:17.543Z,23.27
2017-11-17T13:37:46.165Z,20.90
2017-11-17T13:40:14.859Z,21.00
2017-11-17T13:42:43.566Z,20.70
2017-11-17T13:45:12.282Z,23.35
2017-11-17T13:47:41.026Z,21.00
2017-11-17T13:50:09.744Z,22.23
2017-11-17T13:52:38.490Z,20.80
2017-11-17T13:55:07.167Z,21.80
2017-11-17T13:57:36.059Z,21.73
2017-11-17T14:00:03.856Z,23.08
2017-11-17T14:02:32.321Z,22.77
2017-11-17T14:05:00.754Z,21.02
2017-11-17T14:07:29.634Z,21.40
2017-11-17T14:09:59.484Z,22.92
2017-11-17T14:15:09.045Z,21.67
2017-11-17T14:20:17.991Z,20.43
2017-11-17T14:22:47.354Z,21.77
2017-11-17T14:25:16.406Z,22.50
2017-11-17T14:27:44.953Z,22.25
2017-11-17T14:30:13.407Z,23.87
2017-11-17T14:32:42.108Z,23.83
2017-11-17T14:35:09.944Z,22.60
2017-11-17T14:37:38.809Z,22.95
2017-11-17T14:40:07.535Z,23.00
2017-11-17T14:42:37.061Z,24.47
2017-11-17T14:45:05.547Z,22.40
2017-11-17T14:47:35.440Z,20.30
2017-11-17T14:50:05.784Z,25.20
2017-11-17T14:52:34.404Z,22.77
2017-11-17T14:55:02.835Z,22.60
2017-11-17T14:57:31.680Z,21.70
2017-11-17T15:00:01.194Z,19.55
2017-11-17T15:02:30.075Z,22.17
2017-11-17T15:04:58.615Z,20.80
2017-11-17T15:07:27.054Z,23.00
2017-11-17T15:09:55.100Z,24.33
2017-11-17T15:12:24.345Z,23.80
2017-11-17T15:14:52.560Z,23.53
2017-11-17T15:17:21.655Z,24.48
2017-11-17T15:19:50.059Z,24.45
2017-11-17T15:22:18.924Z,23.80
2017-11-17T15:24:47.032Z,23.90
2017-11-17T15:27:16.057Z,22.63
2017-11-17T15:29:44.575Z,23.40
2017-11-17T15:32:12.978Z,23.10
2017-11-17T15:34:41.042Z,23.63
2017-11-17T15:37:10.821Z,23.95
2017-11-17T15:39:40.319Z,23.48
2017-11-17T15:42:08.908Z,24.90
2017-11-17T15:44:37.691Z,22.55
2017-11-17T15:47:06.278Z,23.20
2017-11-17T15:49:35.840Z,23.74
2017-11-17T15:52:03.613Z,24.97
2017-11-17T15:54:33.149Z,24.98
2017-11-17T15:57:01.662Z,22.70
2017-11-17T15:59:30.108Z,25.08
2017-11-17T16:02:02.347Z,24.95
2017-11-17T16:04:31.910Z,23.05
2017-11-17T16:09:39.902Z,24.30
2017-11-17T16:12:08.513Z,23.30
2017-11-17T16:14:37.724Z,24.87
2017-11-17T16:17:06.164Z,24.30
2017-11-17T16:19:34.806Z,23.53
2017-11-17T16:24:43.049Z,24.40
2017-11-17T16:27:11.788Z,23.53
2017-11-17T16:29:41.040Z,24.23
2017-11-17T16:34:49.655Z,24.60
2017-11-17T16:37:18.122Z,22.17
2017-11-17T16:39:45.951Z,24.17
2017-11-17T16:42:14.021Z,23.37
2017-11-17T16:44:44.049Z,23.80
2017-11-17T16:47:12.890Z,21.90
2017-11-17T16:49:41.569Z,23.70
2017-11-17T16:52:10.245Z,23.20
2017-11-17T16:54:38.639Z,23.90
2017-11-17T16:57:08.476Z,26.03
2017-11-17T16:59:37.387Z,24.85
2017-11-17T17:02:06.858Z,23.67
2017-11-17T17:04:35.304Z,24.03
2017-11-17T17:07:03.744Z,24.02
2017-11-17T17:09:32.258Z,24.63
2017-11-17T17:12:00.170Z,24.10
2017-11-17T17:14:29.420Z,23.60
2017-11-17T17:16:59.062Z,22.23
2017-11-17T17:19:27.773Z,22.47
2017-11-17T17:21:56.228Z,23.30
2017-11-17T17:24:24.935Z,22.83
2017-11-17T17:26:53.938Z,23.47
2017-11-17T17:29:23.162Z,23.50
2017-11-17T17:31:52.643Z,23.05
2017-11-17T17:34:21.710Z,22.25
2017-11-17T17:36:50.162Z,23.80
2017-11-17T17:39:18.632Z,22.03
2017-11-17T17:41:47.219Z,24.30
2017-11-17T17:44:16.760Z,24.60
2017-11-17T17:46:45.482Z,22.13
2017-11-17T17:49:13.913Z,22.42
2017-11-17T17:51:42.368Z,24.33
2017-11-17T17:54:11.131Z,24.12
2017-11-17T17:56:40.700Z,24.35
2017-11-17T17:59:09.157Z,26.20
2017-11-17T18:01:37.710Z,24.23
2017-11-17T18:04:06.155Z,23.48
2017-11-17T18:06:34.593Z,23.37
2017-11-17T18:09:03.084Z,22.90
2017-11-17T18:11:31.803Z,21.77
2017-11-17T18:14:09.574Z,23.70
2017-11-17T18:16:38.311Z,20.70
2017-11-17T18:19:06.739Z,21.75
2017-11-17T18:21:37.156Z,23.87
2017-11-17T18:24:05.775Z,23.93
2017-11-17T18:26:35.189Z,22.52
2017-11-17T18:29:03.775Z,22.10
2017-11-17T18:31:32.438Z,21.70
2017-11-17T18:34:02.057Z,21.77
2017-11-17T18:36:30.783Z,24.97
2017-11-17T18:38:59.753Z,22.60
2017-11-17T18:41:28.531Z,25.13
2017-11-17T18:43:57.114Z,23.33
2017-11-17T18:46:26.714Z,23.92
2017-11-17T18:48:55.422Z,22.13
2017-11-17T18:51:24.941Z,27.03
2017-11-17T18:53:53.824Z,23.47
2017-11-17T18:56:23.597Z,24.23
2017-11-17T18:58:52.930Z,23.52
2017-11-17T19:01:21.642Z,25.20
2017-11-17T19:03:50.339Z,24.55
2017-11-17T19:06:19.092Z,23.23
2017-11-17T19:08:47.878Z,24.83
2017-11-17T19:11:17.538Z,23.90
2017-11-17T19:13:47.007Z,24.40
2017-11-17T19:16:15.660Z,22.67
2017-11-17T19:18:44.662Z,24.20
2017-11-17T19:21:13.417Z,22.23
2017-11-17T19:23:42.228Z,22.90
2017-11-17T19:26:11.927Z,21.90
2017-11-17T19:28:40.380Z,22.63
2017-11-17T19:31:09.578Z,22.55
2017-11-17T19:33:38.890Z,24.27
2017-11-17T19:36:07.426Z,22.97
2017-11-17T19:38:36.028Z,24.33
2017-11-17T19:41:04.746Z,22.67
2017-11-17T19:43:33.601Z,21.67
2017-11-17T19:46:02.200Z,22.25
2017-11-17T19:48:30.960Z,23.02
2017-11-17T19:50:59.424Z,24.50
2017-11-17T19:53:27.851Z,23.98
2017-11-17T19:55:57.041Z,23.80
2017-11-17T19:58:26.553Z,21.37
2017-11-17T20:00:55.271Z,22.85
2017-11-17T20:03:23.989Z,22.73
2017-11-17T20:05:52.721Z,22.75
2017-11-17T20:08:21.600Z,23.35
2017-11-17T20:10:50.087Z,21.43
2017-11-17T20:13:18.835Z,22.27
2017-11-17T20:15:47.308Z,24.57
2017-11-17T20:18:15.800Z,21.87
2017-11-17T20:20:44.940Z,23.27
2017-11-17T20:23:14.221Z,23.23
2017-11-17T20:25:42.791Z,20.23
2017-11-17T20:28:11.530Z,20.77
2017-11-17T20:30:40.268Z,21.67
2017-11-17T20:33:08.982Z,20.35
2017-11-17T20:38:19.064Z,22.30
2017-11-17T20:40:47.558Z,23.00
2017-11-17T20:43:16.274Z,24.02
2017-11-17T20:45:44.948Z,22.10
2017-11-17T20:48:13.722Z,22.85
2017-11-17T20:50:42.438Z,24.83
2017-11-17T20:53:11.621Z,22.40
2017-11-17T20:55:40.338Z,20.00
2017-11-17T20:58:09.627Z,22.00
2017-11-17T21:00:38.946Z,23.70
2017-11-17T21:03:07.674Z,20.70
2017-11-17T21:05:36.110Z,21.30
2017-11-17T21:08:05.092Z,23.50
2017-11-17T21:10:35.094Z,21.98
2017-11-17T21:13:03.788Z,25.40
2017-11-17T21:15:32.669Z,23.47
2017-11-17T21:18:02.454Z,24.67
2017-11-17T21:20:30.885Z,25.10
2017-11-17T21:23:00.365Z,24.48
2017-11-17T21:25:29.588Z,25.95
2017-11-17T21:27:58.967Z,24.03
2017-11-17T21:30:27.677Z,24.05
2017-11-17T21:32:56.891Z,23.97
2017-11-17T21:35:26.140Z,23.80
2017-11-17T21:37:54.974Z,23.02
2017-11-17T21:40:23.669Z,22.97
2017-11-17T21:42:52.459Z,23.55
2017-11-17T21:45:21.936Z,21.75
2017-11-17T21:47:51.595Z,23.93
2017-11-17T21:50:20.431Z,22.92
2017-11-17T21:52:48.872Z,23.30
2017-11-17T21:55:17.629Z,24.23
2017-11-17T21:57:46.833Z,23.65
2017-11-17T22:00:16.712Z,23.17
2017-11-17T22:02:46.510Z,22.60
2017-11-17T22:05:14.948Z,23.60
2017-11-17T22:07:43.721Z,24.27
2017-11-17T22:10:12.443Z,25.40
2017-11-17T22:12:41.263Z,22.77
2017-11-17T22:15:10.948Z,24.55
2017-11-17T22:17:39.763Z,23.12
2017-11-17T22:20:08.347Z,21.40
2017-11-17T22:22:37.099Z,24.00
2017-11-17T22:25:05.999Z,22.23
2017-11-17T22:27:34.866Z,22.25
2017-11-17T22:30:04.058Z,24.90
2017-11-17T22:32:32.444Z,22.73
2017-11-17T22:35:01.639Z,24.77
2017-11-17T22:37:31.237Z,22.08
2017-11-17T22:39:59.973Z,24.37
2017-11-17T22:42:29.439Z,24.23
2017-11-17T22:44:58.510Z,23.80
2017-11-17T22:47:27.191Z,23.87
2017-11-17T22:49:55.898Z,23.67
2017-11-17T22:52:25.181Z,24.83
2017-11-17T22:54:53.634Z,23.23
2017-11-17T22:57:22.146Z,22.03
2017-11-17T22:59:50.587Z,23.17
2017-11-17T23:02:19.043Z,23.00
2017-11-17T23:04:47.470Z,24.27
2017-11-17T23:07:15.902Z,24.43
2017-11-17T23:09:44.531Z,24.13
2017-11-17T23:12:12.962Z,25.00
2017-11-17T23:14:41.404Z,24.57
2017-11-17T23:17:09.867Z,23.13
2017-11-17T23:19:38.298Z,25.20
2017-11-17T23:22:06.728Z,23.97
2017-11-17T23:24:35.190Z,25.73
2017-11-17T23:27:03.623Z,23.00
2017-11-17T23:29:32.846Z,23.00
2017-11-17T23:32:01.306Z,23.77
2017-11-17T23:34:29.741Z,22.27
2017-11-17T23:36:58.177Z,23.97
2017-11-17T23:39:26.630Z,23.50
2017-11-17T23:41:55.831Z,24.03
2017-11-17T23:44:25.031Z,24.17
2017-11-17T23:46:54.246Z,23.53
2017-11-17T23:49:22.675Z,22.30
2017-11-17T23:51:50.615Z,22.00
2017-11-17T23:54:18.435Z,24.03
2017-11-17T23:56:47.643Z,23.53
2017-11-17T23:59:16.077Z,25.60
